KMDT/MDT METAR and TAF weather

Enter ICAO airport designator
Station Type Date Time Source
KMDT METAR 2019/04/18 21:56 UTC NOAA

KMDT 182156Z 13009KT 10SM SCT200 22/13 A2981 RMK AO2 SLP096 T02170133


Station Type Date Time Source
KMDT Decoded METAR 2019/04/18 21:56 UTC NOAA

HARRISBURG INTERNATIONAL AIRPORT, PA, United States (KMDT) 40-12N 076-46W 95M
Apr 18, 2019 - 05:56 PM EDT / 2019.04.18 2156 UTC
Wind: from the SE (130 degrees) at 10 MPH (9 KT):0
Visibility: 10 mile(s):0
Sky conditions: partly cloudy
Temperature: 71.1 F (21.7 C)
Dew Point: 55.9 F (13.3 C)
Relative Humidity: 58%
Pressure (altimeter): 29.81 in. Hg (1009 hPa)
ob: KMDT 182156Z 13009KT 10SM SCT200 22/13 A2981 RMK AO2 SLP096 T02170133
cycle: 22

Station Type Date Time Source
KMDT TAF 2019/04/18 21:16 UTC NOAA

TAF
AMD KMDT 182113Z 1821/1918 15007KT P6SM SCT150
FM190900 16010G18KT 6SM BR OVC015

Example: see airport list